Time;durP1;ratioP1;P1;durP2;ratioP2;P2;SDS_P1;SDS_P2;PMS_P1;PMS_P2;Temp;Humidity;BMP_temperature;BMP_pressure;BME280_temperature;BME280_humidity;BME280_pressure;Samples;Min_cycle;Max_cycle;Signal;HPM_P1;HPM_P2
2024/01/27 00:01:51;;;;;;;20.00;4.85;;;;;;;;;;4964651;28;20105;-66
2024/01/27 00:04:17;;;;;;;19.70;3.65;;;;;;;;;;4964481;28;20038;-66
2024/01/27 00:06:44;;;;;;;17.70;3.88;;;;;;;;;;4964400;28;20030;-66
2024/01/27 00:09:10;;;;;;;17.48;3.05;;;;;;;;;;4964049;28;20045;-66
2024/01/27 00:11:36;;;;;;;25.17;4.05;;;;;;;;;;4963704;28;20062;-66
2024/01/27 00:14:02;;;;;;;20.48;3.30;;;;;;;;;;4963751;28;20031;-65
2024/01/27 00:16:29;;;;;;;22.98;3.42;;;;;;;;;;4964025;28;21032;-66
2024/01/27 00:18:55;;;;;;;15.13;3.80;;;;;;;;;;4963871;28;20718;-65
2024/01/27 00:21:21;;;;;;;15.02;2.75;;;;;;;;;;4964319;28;20129;-66
2024/01/27 00:23:47;;;;;;;28.17;3.47;;;;;;;;;;4964116;28;20031;-66
2024/01/27 00:26:13;;;;;;;26.73;3.45;;;;;;;;;;4962238;28;21505;-65
2024/01/27 00:28:39;;;;;;;24.95;4.22;;;;;;;;;;4959546;28;20034;-65
2024/01/27 00:31:05;;;;;;;19.88;3.40;;;;;;;;;;4959185;28;20042;-65
2024/01/27 00:33:31;;;;;;;18.70;3.28;;;;;;;;;;4958643;28;20041;-66
2024/01/27 00:35:57;;;;;;;21.40;3.85;;;;;;;;;;4959879;28;20494;-65
2024/01/27 00:38:23;;;;;;;17.60;3.47;;;;;;;;;;4958542;28;20829;-65
2024/01/27 00:40:49;;;;;;;20.13;3.72;;;;;;;;;;4959357;28;20605;-65
2024/01/27 00:43:15;;;;;;;19.00;4.90;;;;;;;;;;4958308;28;20069;-66
2024/01/27 00:45:41;;;;;;;19.67;3.00;;;;;;;;;;4958033;28;20049;-65
2024/01/27 00:48:07;;;;;;;19.23;3.95;;;;;;;;;;4957962;28;20039;-65
2024/01/27 00:50:33;;;;;;;29.90;4.05;;;;;;;;;;4958714;28;20040;-65
2024/01/27 00:52:59;;;;;;;24.05;3.55;;;;;;;;;;4958289;28;20651;-65
2024/01/27 00:55:26;;;;;;;21.90;4.28;;;;;;;;;;4955906;28;21479;-65
2024/01/27 00:57:53;;;;;;;23.33;3.42;;;;;;;;;;4956968;28;20027;-65
2024/01/27 01:00:19;;;;;;;20.60;3.20;;;;;;;;;;4955260;28;20046;-65
2024/01/27 01:02:45;;;;;;;21.42;3.70;;;;;;;;;;4956663;28;20087;-65
2024/01/27 01:05:11;;;;;;;15.02;3.22;;;;;;;;;;4957249;28;20042;-65
2024/01/27 01:07:37;;;;;;;18.17;3.75;;;;;;;;;;4958702;28;20501;-65
2024/01/27 01:10:04;;;;;;;19.33;3.47;;;;;;;;;;4957766;28;20504;-65
2024/01/27 01:12:30;;;;;;;28.25;3.97;;;;;;;;;;4957989;28;21854;-65
2024/01/27 01:14:56;;;;;;;25.52;4.68;;;;;;;;;;4957677;28;20044;-65
2024/01/27 01:17:23;;;;;;;18.17;3.53;;;;;;;;;;4955673;28;20034;-65
2024/01/27 01:19:49;;;;;;;21.00;3.10;;;;;;;;;;4957712;28;20046;-65
2024/01/27 01:22:15;;;;;;;21.20;3.10;;;;;;;;;;4958221;28;20030;-65
2024/01/27 01:24:41;;;;;;;24.10;2.97;;;;;;;;;;4958136;28;20030;-65
2024/01/27 01:27:08;;;;;;;13.88;2.47;;;;;;;;;;4958108;28;20097;-66
2024/01/27 01:29:34;;;;;;;21.27;3.28;;;;;;;;;;4957447;28;20045;-65
2024/01/27 01:32:02;;;;;;;16.73;3.17;;;;;;;;;;4957525;28;20387;-65
2024/01/27 01:34:29;;;;;;;17.35;3.13;;;;;;;;;;4958204;28;20042;-65
2024/01/27 01:36:57;;;;;;;17.30;2.67;;;;;;;;;;4940449;28;20865;-65
2024/01/27 01:39:23;;;;;;;18.80;3.25;;;;;;;;;;4958086;28;20050;-65
2024/01/27 01:41:49;;;;;;;17.40;3.15;;;;;;;;;;4958161;28;20038;-65
2024/01/27 01:44:15;;;;;;;20.65;2.88;;;;;;;;;;4957615;28;20695;-65
2024/01/27 01:46:41;;;;;;;19.08;3.13;;;;;;;;;;4956775;28;21825;-65
2024/01/27 01:49:08;;;;;;;19.05;2.70;;;;;;;;;;4957623;28;20134;-65
2024/01/27 01:51:34;;;;;;;20.48;3.17;;;;;;;;;;4957390;28;20498;-65
2024/01/27 01:54:00;;;;;;;20.50;3.10;;;;;;;;;;4958391;28;20018;-66
2024/01/27 01:56:26;;;;;;;21.52;3.40;;;;;;;;;;4958374;28;20785;-65
2024/01/27 01:58:54;;;;;;;21.70;4.15;;;;;;;;;;4957990;28;20830;-65
2024/01/27 02:01:21;;;;;;;18.95;3.38;;;;;;;;;;4956928;28;20039;-65
2024/01/27 02:03:57;;;;;;;18.73;2.47;;;;;;;;;;4957800;28;20027;-65
2024/01/27 02:06:23;;;;;;;17.42;3.15;;;;;;;;;;4956292;28;20042;-65
2024/01/27 02:08:49;;;;;;;19.50;3.08;;;;;;;;;;4958549;28;20039;-65
2024/01/27 02:11:15;;;;;;;18.00;2.45;;;;;;;;;;4957515;28;20435;-65
2024/01/27 02:13:41;;;;;;;15.93;2.80;;;;;;;;;;4958674;28;21182;-65
2024/01/27 02:16:07;;;;;;;17.63;2.55;;;;;;;;;;4957027;28;20531;-65
2024/01/27 02:18:34;;;;;;;17.77;2.67;;;;;;;;;;4957437;28;20039;-65
2024/01/27 02:21:00;;;;;;;19.33;2.80;;;;;;;;;;4957288;28;20036;-65
2024/01/27 02:23:26;;;;;;;18.95;2.80;;;;;;;;;;4957582;28;20078;-65
2024/01/27 02:25:52;;;;;;;22.73;3.55;;;;;;;;;;4962281;28;20054;-65
2024/01/27 02:28:18;;;;;;;13.75;2.22;;;;;;;;;;4981616;28;20045;-65
2024/01/27 02:30:44;;;;;;;20.77;3.30;;;;;;;;;;4985650;28;20732;-65
2024/01/27 02:33:10;;;;;;;18.83;3.40;;;;;;;;;;4984841;28;20569;-65
2024/01/27 02:35:36;;;;;;;14.63;3.33;;;;;;;;;;4986104;28;20121;-65
2024/01/27 02:38:02;;;;;;;16.48;2.50;;;;;;;;;;4985754;28;20040;-65
2024/01/27 02:40:28;;;;;;;20.52;3.30;;;;;;;;;;4984909;28;20037;-65
2024/01/27 02:42:54;;;;;;;20.55;3.40;;;;;;;;;;4984577;28;20046;-65
2024/01/27 02:45:20;;;;;;;18.80;2.92;;;;;;;;;;4985612;28;20516;-65
2024/01/27 02:47:46;;;;;;;17.27;2.88;;;;;;;;;;4985815;28;20666;-65
2024/01/27 02:50:13;;;;;;;17.08;2.80;;;;;;;;;;4984558;28;20049;-65
2024/01/27 02:52:39;;;;;;;22.50;2.53;;;;;;;;;;4985311;28;21805;-65
2024/01/27 02:55:05;;;;;;;12.88;2.17;;;;;;;;;;4982003;28;21280;-65
2024/01/27 02:57:31;;;;;;;18.45;3.60;;;;;;;;;;4985198;28;20417;-65
2024/01/27 02:59:57;;;;;;;16.30;2.47;;;;;;;;;;4984906;28;20041;-65
2024/01/27 03:02:23;;;;;;;13.27;2.55;;;;;;;;;;4985599;28;20596;-65
2024/01/27 03:04:50;;;;;;;16.38;3.05;;;;;;;;;;4985392;28;20057;-65
2024/01/27 03:07:16;;;;;;;20.33;2.72;;;;;;;;;;4983922;28;20037;-65
2024/01/27 03:09:42;;;;;;;22.50;3.85;;;;;;;;;;4985007;28;20041;-65
2024/01/27 03:12:08;;;;;;;11.27;2.88;;;;;;;;;;4984736;28;20049;-65
2024/01/27 03:14:34;;;;;;;19.00;2.90;;;;;;;;;;4984255;28;20041;-65
2024/01/27 03:17:00;;;;;;;14.35;2.58;;;;;;;;;;4984482;28;20967;-65
2024/01/27 03:19:26;;;;;;;13.35;3.17;;;;;;;;;;4985414;28;20088;-65
2024/01/27 03:21:52;;;;;;;18.60;3.08;;;;;;;;;;4984955;28;20517;-65
2024/01/27 03:24:18;;;;;;;20.13;3.28;;;;;;;;;;4965184;28;20034;-65
2024/01/27 03:26:44;;;;;;;16.80;2.75;;;;;;;;;;4984928;28;20857;-65
2024/01/27 03:29:10;;;;;;;17.83;2.67;;;;;;;;;;4984658;28;20522;-65
2024/01/27 03:31:36;;;;;;;16.85;3.10;;;;;;;;;;4984474;28;20030;-65
2024/01/27 03:34:03;;;;;;;18.08;2.83;;;;;;;;;;4984665;28;20030;-65
2024/01/27 03:36:29;;;;;;;13.07;3.00;;;;;;;;;;4984797;28;20839;-65
2024/01/27 03:38:57;;;;;;;17.88;2.85;;;;;;;;;;4984438;28;20737;-65
2024/01/27 03:41:23;;;;;;;15.82;2.40;;;;;;;;;;4983685;28;20107;-65
2024/01/27 03:43:49;;;;;;;15.90;2.40;;;;;;;;;;4984603;28;20146;-65
2024/01/27 03:46:15;;;;;;;19.10;2.97;;;;;;;;;;4983768;28;20046;-65
2024/01/27 03:48:41;;;;;;;18.08;3.40;;;;;;;;;;4984704;28;20030;-65
2024/01/27 03:51:07;;;;;;;13.20;2.50;;;;;;;;;;4984430;28;21390;-65
2024/01/27 03:53:33;;;;;;;20.17;3.22;;;;;;;;;;4983652;28;20046;-65
2024/01/27 03:56:02;;;;;;;15.38;2.90;;;;;;;;;;4983403;28;20147;-65
2024/01/27 03:58:28;;;;;;;22.73;2.92;;;;;;;;;;4984131;28;20088;-65
2024/01/27 04:00:54;;;;;;;19.58;2.63;;;;;;;;;;4984400;28;20034;-65
2024/01/27 04:03:21;;;;;;;15.82;3.15;;;;;;;;;;4984201;28;20522;-65
2024/01/27 04:05:47;;;;;;;18.20;3.00;;;;;;;;;;4984401;28;20034;-65
2024/01/27 04:08:13;;;;;;;14.80;2.72;;;;;;;;;;4984068;28;20053;-65
2024/01/27 04:10:39;;;;;;;20.42;2.97;;;;;;;;;;4983350;28;20398;-65
2024/01/27 04:13:05;;;;;;;18.67;2.88;;;;;;;;;;4983273;28;20540;-65
2024/01/27 04:15:38;;;;;;;21.35;4.22;;;;;;;;;;4983275;28;20473;-65
2024/01/27 04:18:05;;;;;;;17.48;2.70;;;;;;;;;;4969110;28;20916;-65
2024/01/27 04:20:31;;;;;;;23.17;2.97;;;;;;;;;;4983014;28;20045;-65
2024/01/27 04:22:57;;;;;;;17.77;2.50;;;;;;;;;;4983389;28;20494;-65
2024/01/27 04:25:23;;;;;;;22.38;3.17;;;;;;;;;;4983219;28;20676;-65
2024/01/27 04:27:49;;;;;;;18.20;2.63;;;;;;;;;;4974031;28;20110;-65
2024/01/27 04:30:16;;;;;;;22.02;3.40;;;;;;;;;;4958608;28;20048;-65
2024/01/27 04:32:42;;;;;;;26.60;3.40;;;;;;;;;;4958901;28;20762;-65
2024/01/27 04:35:11;;;;;;;23.33;3.15;;;;;;;;;;4959161;28;20181;-65
2024/01/27 04:37:38;;;;;;;22.20;3.10;;;;;;;;;;4959098;28;20715;-65
2024/01/27 04:40:05;;;;;;;15.02;2.67;;;;;;;;;;4960113;28;20034;-65
2024/01/27 04:42:32;;;;;;;19.13;3.25;;;;;;;;;;4959023;28;20066;-66
2024/01/27 04:44:58;;;;;;;17.02;3.50;;;;;;;;;;4958294;28;20092;-65
2024/01/27 04:47:24;;;;;;;14.40;2.72;;;;;;;;;;4958315;28;20047;-65
2024/01/27 04:49:51;;;;;;;19.33;3.45;;;;;;;;;;4940365;28;20039;-65
2024/01/27 04:52:17;;;;;;;15.85;2.60;;;;;;;;;;4958598;28;20040;-65
2024/01/27 04:54:43;;;;;;;17.80;3.58;;;;;;;;;;4958440;28;20034;-65
2024/01/27 04:57:09;;;;;;;14.70;2.67;;;;;;;;;;4958973;28;20117;-65
2024/01/27 04:59:36;;;;;;;19.60;3.13;;;;;;;;;;4958770;28;20493;-65
2024/01/27 05:02:02;;;;;;;17.95;2.72;;;;;;;;;;4959276;28;20034;-65
2024/01/27 05:04:28;;;;;;;10.35;2.17;;;;;;;;;;4958867;28;20053;-65
2024/01/27 05:06:54;;;;;;;18.67;2.95;;;;;;;;;;4959111;28;20030;-65
2024/01/27 05:09:20;;;;;;;18.35;2.97;;;;;;;;;;4958845;28;20039;-65
2024/01/27 05:11:47;;;;;;;19.25;3.33;;;;;;;;;;4958936;28;20027;-65
2024/01/27 05:14:13;;;;;;;17.17;2.78;;;;;;;;;;4959396;28;20039;-65
2024/01/27 05:16:40;;;;;;;11.60;2.35;;;;;;;;;;4958478;28;20033;-65
2024/01/27 05:19:06;;;;;;;18.50;2.53;;;;;;;;;;4958412;28;20488;-65
2024/01/27 05:21:32;;;;;;;12.65;2.65;;;;;;;;;;4958355;28;21538;-65
2024/01/27 05:23:58;;;;;;;17.00;3.20;;;;;;;;;;4958315;28;20160;-65
2024/01/27 05:26:24;;;;;;;20.20;3.20;;;;;;;;;;4967960;28;20058;-65
2024/01/27 05:28:50;;;;;;;15.43;2.58;;;;;;;;;;4982346;28;20037;-65
2024/01/27 05:31:16;;;;;;;20.00;3.40;;;;;;;;;;4982618;28;20041;-65
2024/01/27 05:33:43;;;;;;;17.90;3.28;;;;;;;;;;4982203;28;20036;-65
2024/01/27 05:36:09;;;;;;;15.20;2.55;;;;;;;;;;4981629;28;20058;-65
2024/01/27 05:38:35;;;;;;;20.63;3.35;;;;;;;;;;4978849;28;20038;-65
2024/01/27 05:41:01;;;;;;;19.45;3.65;;;;;;;;;;4982347;28;20038;-65
2024/01/27 05:43:27;;;;;;;19.00;3.13;;;;;;;;;;4981679;28;20043;-65
2024/01/27 05:45:53;;;;;;;19.10;3.85;;;;;;;;;;4982062;28;20039;-65
2024/01/27 05:48:20;;;;;;;9.20;2.53;;;;;;;;;;4982534;28;20038;-65
2024/01/27 05:50:56;;;;;;;19.42;3.25;;;;;;;;;;4980971;28;20124;-65
2024/01/27 05:53:22;;;;;;;15.57;3.05;;;;;;;;;;4982135;28;20072;-65
2024/01/27 05:55:48;;;;;;;13.13;2.55;;;;;;;;;;4981858;28;20030;-65
2024/01/27 05:58:14;;;;;;;17.95;2.72;;;;;;;;;;4981371;28;20117;-65
2024/01/27 06:00:40;;;;;;;19.08;3.40;;;;;;;;;;4982075;28;20038;-65
2024/01/27 06:03:06;;;;;;;19.98;3.17;;;;;;;;;;4981207;28;20045;-65
2024/01/27 06:05:32;;;;;;;13.88;2.30;;;;;;;;;;4982073;28;20932;-65
2024/01/27 06:07:58;;;;;;;13.85;2.30;;;;;;;;;;4981252;28;20524;-65
2024/01/27 06:10:24;;;;;;;10.57;2.28;;;;;;;;;;4980663;28;20036;-65
2024/01/27 06:12:50;;;;;;;15.55;2.72;;;;;;;;;;4981877;28;20030;-65
2024/01/27 06:15:16;;;;;;;20.98;4.00;;;;;;;;;;4981114;28;20069;-65
2024/01/27 06:17:42;;;;;;;15.35;3.47;;;;;;;;;;4981713;28;20065;-65
2024/01/27 06:20:09;;;;;;;18.98;2.90;;;;;;;;;;4982160;28;20037;-65
2024/01/27 06:22:35;;;;;;;20.77;3.40;;;;;;;;;;4982332;28;20038;-65
2024/01/27 06:25:01;;;;;;;15.85;3.25;;;;;;;;;;4982001;28;20084;-65
2024/01/27 06:27:27;;;;;;;18.77;3.03;;;;;;;;;;4980599;28;21845;-65
2024/01/27 06:29:53;;;;;;;17.55;3.22;;;;;;;;;;4981647;28;20108;-65
2024/01/27 06:32:19;;;;;;;23.80;3.58;;;;;;;;;;4981027;28;20465;-65
2024/01/27 06:34:45;;;;;;;16.10;3.03;;;;;;;;;;4980292;28;20512;-65
2024/01/27 06:37:11;;;;;;;18.92;3.65;;;;;;;;;;4978655;28;20041;-65
2024/01/27 06:39:37;;;;;;;20.63;2.88;;;;;;;;;;4980590;28;20740;-65
2024/01/27 06:42:03;;;;;;;15.85;3.00;;;;;;;;;;4978910;28;20048;-65
2024/01/27 06:44:29;;;;;;;19.27;3.83;;;;;;;;;;4980707;28;20585;-65
2024/01/27 06:46:56;;;;;;;13.45;3.20;;;;;;;;;;4979634;28;20034;-65
2024/01/27 06:49:22;;;;;;;20.55;3.58;;;;;;;;;;4980214;28;20042;-65
2024/01/27 06:51:48;;;;;;;22.17;3.70;;;;;;;;;;4978913;28;20702;-65
2024/01/27 06:54:14;;;;;;;22.75;3.47;;;;;;;;;;4978840;28;20022;-65
2024/01/27 06:56:40;;;;;;;18.88;3.20;;;;;;;;;;4980123;28;20026;-65
2024/01/27 06:59:06;;;;;;;14.77;2.83;;;;;;;;;;4978524;28;20507;-65
2024/01/27 07:01:32;;;;;;;22.30;3.67;;;;;;;;;;4979244;28;20038;-65
2024/01/27 07:03:58;;;;;;;16.67;3.45;;;;;;;;;;4979733;28;20076;-65
2024/01/27 07:06:24;;;;;;;16.88;3.10;;;;;;;;;;4980148;28;20073;-65
2024/01/27 07:08:50;;;;;;;17.75;2.83;;;;;;;;;;4980846;28;20070;-65
2024/01/27 07:11:16;;;;;;;16.23;3.42;;;;;;;;;;4980590;28;20038;-65
2024/01/27 07:13:42;;;;;;;16.08;3.25;;;;;;;;;;4979547;28;20540;-65
2024/01/27 07:16:08;;;;;;;18.60;2.85;;;;;;;;;;4982170;28;20662;-65
2024/01/27 07:18:35;;;;;;;18.05;2.92;;;;;;;;;;4982817;28;20946;-65
2024/01/27 07:21:02;;;;;;;22.55;3.38;;;;;;;;;;4983676;28;20030;-65
2024/01/27 07:23:28;;;;;;;17.30;2.95;;;;;;;;;;4983341;28;20034;-65
2024/01/27 07:25:54;;;;;;;21.65;3.67;;;;;;;;;;4982215;28;20050;-65
2024/01/27 07:28:20;;;;;;;15.82;2.50;;;;;;;;;;4982484;28;20034;-65
2024/01/27 07:30:46;;;;;;;13.18;3.10;;;;;;;;;;4981722;28;20103;-65
2024/01/27 07:33:13;;;;;;;20.60;3.17;;;;;;;;;;4982522;28;20034;-65
2024/01/27 07:35:39;;;;;;;15.20;2.80;;;;;;;;;;4982621;28;20501;-65
2024/01/27 07:38:05;;;;;;;18.20;3.03;;;;;;;;;;4983144;28;20088;-65
2024/01/27 07:40:31;;;;;;;16.38;2.90;;;;;;;;;;4982691;28;20042;-65
2024/01/27 07:42:58;;;;;;;23.95;4.13;;;;;;;;;;4982612;28;20061;-65
2024/01/27 07:45:24;;;;;;;21.60;3.17;;;;;;;;;;4963484;28;20035;-65
2024/01/27 07:47:50;;;;;;;17.02;3.00;;;;;;;;;;4982436;28;20038;-65
2024/01/27 07:50:16;;;;;;;14.00;2.63;;;;;;;;;;4982904;28;20037;-65
2024/01/27 07:52:42;;;;;;;21.17;3.70;;;;;;;;;;4983200;28;20034;-65
2024/01/27 07:55:08;;;;;;;21.10;4.18;;;;;;;;;;4982841;28;20038;-65
2024/01/27 07:57:35;;;;;;;14.63;2.80;;;;;;;;;;4982757;28;20066;-65
2024/01/27 08:00:01;;;;;;;15.38;3.40;;;;;;;;;;4983087;28;20084;-65
2024/01/27 08:02:27;;;;;;;19.15;4.10;;;;;;;;;;4982247;28;21866;-65
2024/01/27 08:04:53;;;;;;;15.43;3.33;;;;;;;;;;4983129;28;21955;-65
2024/01/27 08:07:19;;;;;;;18.88;4.28;;;;;;;;;;4982971;28;20133;-65
2024/01/27 08:09:45;;;;;;;16.27;3.35;;;;;;;;;;4982667;28;20153;-65
2024/01/27 08:12:11;;;;;;;19.77;3.78;;;;;;;;;;4982890;28;20034;-65
2024/01/27 08:14:38;;;;;;;18.80;3.65;;;;;;;;;;4982570;28;20030;-65
2024/01/27 08:17:04;;;;;;;15.52;2.95;;;;;;;;;;4982991;28;20038;-65
2024/01/27 08:19:30;;;;;;;16.33;3.13;;;;;;;;;;4982631;28;20045;-65
2024/01/27 08:21:56;;;;;;;17.30;3.90;;;;;;;;;;4983752;28;20696;-65
2024/01/27 08:24:24;;;;;;;17.95;4.07;;;;;;;;;;4983227;28;22046;-65
2024/01/27 08:26:50;;;;;;;18.15;3.78;;;;;;;;;;4983233;28;21186;-65
2024/01/27 08:29:16;;;;;;;19.92;4.95;;;;;;;;;;4983219;28;20071;-65
2024/01/27 08:31:43;;;;;;;24.10;3.50;;;;;;;;;;4983308;28;20053;-65
2024/01/27 08:34:12;;;;;;;20.60;3.65;;;;;;;;;;4983213;28;20026;-65
2024/01/27 08:36:38;;;;;;;12.40;2.90;;;;;;;;;;4982130;28;20030;-65
2024/01/27 08:39:07;;;;;;;21.90;4.03;;;;;;;;;;4982841;28;20034;-65
2024/01/27 08:41:33;;;;;;;13.65;3.33;;;;;;;;;;4982786;28;20068;-65
2024/01/27 08:43:59;;;;;;;17.42;3.72;;;;;;;;;;4982982;28;20057;-65
2024/01/27 08:46:25;;;;;;;21.88;4.30;;;;;;;;;;4978329;28;20034;-65
2024/01/27 08:48:51;;;;;;;12.70;3.35;;;;;;;;;;4981626;28;20042;-65
2024/01/27 08:51:17;;;;;;;21.02;4.00;;;;;;;;;;4981557;28;20033;-65
2024/01/27 08:53:48;;;;;;;17.20;4.05;;;;;;;;;;4982144;28;20033;-65
2024/01/27 08:56:17;;;;;;;27.63;3.95;;;;;;;;;;4981750;28;20029;-65
2024/01/27 08:58:44;;;;;;;20.50;3.70;;;;;;;;;;4982036;28;20058;-65
2024/01/27 09:01:12;;;;;;;16.10;4.30;;;;;;;;;;4981730;28;20590;-65
2024/01/27 09:03:40;;;;;;;19.48;4.72;;;;;;;;;;4978935;28;20163;-65
2024/01/27 09:06:07;;;;;;;17.17;3.72;;;;;;;;;;4952427;28;20137;-65
2024/01/27 09:08:34;;;;;;;19.88;4.18;;;;;;;;;;4973693;28;20159;-65
2024/01/27 09:11:00;;;;;;;21.50;3.42;;;;;;;;;;4974011;28;20034;-65
2024/01/27 09:13:26;;;;;;;18.80;4.40;;;;;;;;;;4973862;28;20034;-65
2024/01/27 09:15:52;;;;;;;15.35;4.60;;;;;;;;;;4974315;28;20865;-65
2024/01/27 09:18:18;;;;;;;27.23;4.93;;;;;;;;;;4973873;28;20045;-65
2024/01/27 09:20:45;;;;;;;23.80;5.32;;;;;;;;;;4974071;28;20034;-65
2024/01/27 09:23:11;;;;;;;21.75;4.82;;;;;;;;;;4974142;28;20026;-65
2024/01/27 09:25:37;;;;;;;16.00;4.32;;;;;;;;;;4972476;28;20033;-65
2024/01/27 09:28:03;;;;;;;15.85;4.95;;;;;;;;;;4974284;28;20042;-65
2024/01/27 09:30:30;;;;;;;17.58;4.32;;;;;;;;;;4955704;28;20076;-65
2024/01/27 09:32:56;;;;;;;24.45;4.25;;;;;;;;;;4973790;28;20026;-65
2024/01/27 09:35:22;;;;;;;23.58;4.68;;;;;;;;;;4973530;28;20060;-65
2024/01/27 09:37:48;;;;;;;17.88;4.32;;;;;;;;;;4974076;28;21087;-65
2024/01/27 09:40:14;;;;;;;19.73;4.43;;;;;;;;;;4973337;28;20187;-65
2024/01/27 09:42:44;;;;;;;18.77;4.85;;;;;;;;;;4973479;28;20042;-65
2024/01/27 09:45:11;;;;;;;15.82;4.70;;;;;;;;;;4973471;28;20045;-65
2024/01/27 09:47:37;;;;;;;15.10;4.65;;;;;;;;;;4973100;28;20119;-65
2024/01/27 09:50:03;;;;;;;20.05;4.65;;;;;;;;;;4973998;28;20390;-65
2024/01/27 09:52:29;;;;;;;16.67;4.18;;;;;;;;;;4973395;28;20062;-65
2024/01/27 09:54:55;;;;;;;20.05;4.95;;;;;;;;;;4973264;28;20041;-65
2024/01/27 09:57:22;;;;;;;21.67;5.40;;;;;;;;;;4973055;28;20116;-65
2024/01/27 09:59:48;;;;;;;24.63;5.35;;;;;;;;;;4973720;28;20034;-66
2024/01/27 10:02:14;;;;;;;15.02;4.05;;;;;;;;;;4973201;28;20037;-65
2024/01/27 10:04:42;;;;;;;19.98;5.10;;;;;;;;;;4973110;28;20030;-65
2024/01/27 10:07:08;;;;;;;18.90;4.97;;;;;;;;;;4973956;28;20037;-65
2024/01/27 10:09:34;;;;;;;20.92;4.57;;;;;;;;;;4973247;28;20029;-66
2024/01/27 10:12:01;;;;;;;10.75;3.30;;;;;;;;;;4973742;28;20666;-65
2024/01/27 10:14:38;;;;;;;15.80;4.28;;;;;;;;;;4981166;28;20117;-66
2024/01/27 10:17:05;;;;;;;20.75;5.38;;;;;;;;;;4979306;28;20022;-66
2024/01/27 10:19:31;;;;;;;14.57;4.22;;;;;;;;;;4981208;28;20030;-66
2024/01/27 10:22:04;;;;;;;20.35;5.25;;;;;;;;;;4979913;28;20056;-66
2024/01/27 10:24:33;;;;;;;16.15;4.50;;;;;;;;;;4980628;28;20052;-65
2024/01/27 10:27:01;;;;;;;20.92;4.70;;;;;;;;;;4980540;28;20046;-66
2024/01/27 10:29:27;;;;;;;14.40;4.20;;;;;;;;;;4981525;28;20027;-65
2024/01/27 10:31:53;;;;;;;19.25;5.78;;;;;;;;;;4981538;28;20034;-65
2024/01/27 10:34:22;;;;;;;17.23;4.25;;;;;;;;;;4980943;28;20030;-65
2024/01/27 10:36:48;;;;;;;15.68;4.28;;;;;;;;;;4981945;28;20053;-65
2024/01/27 10:39:23;;;;;;;15.60;3.72;;;;;;;;;;4962422;28;21074;-65
2024/01/27 10:41:50;;;;;;;20.55;5.47;;;;;;;;;;4981513;28;20049;-65
2024/01/27 10:44:17;;;;;;;13.55;4.43;;;;;;;;;;4981251;28;20370;-65
2024/01/27 10:46:45;;;;;;;18.33;4.78;;;;;;;;;;4981191;28;20111;-65
2024/01/27 10:49:13;;;;;;;13.48;4.30;;;;;;;;;;4979381;28;20103;-65
2024/01/27 10:51:42;;;;;;;21.23;5.03;;;;;;;;;;4984406;28;20040;-65
2024/01/27 10:54:11;;;;;;;15.95;4.20;;;;;;;;;;4964154;28;20437;-66
2024/01/27 10:56:38;;;;;;;15.93;4.13;;;;;;;;;;4984589;28;20038;-65
2024/01/27 10:59:05;;;;;;;19.88;5.03;;;;;;;;;;4965724;28;20036;-65
2024/01/27 11:01:34;;;;;;;20.30;4.70;;;;;;;;;;4984516;28;20445;-64
2024/01/27 11:04:01;;;;;;;14.15;3.80;;;;;;;;;;4981689;28;20753;-65
2024/01/27 11:06:27;;;;;;;14.20;4.60;;;;;;;;;;4983665;28;20037;-65
2024/01/27 11:08:54;;;;;;;17.70;4.40;;;;;;;;;;4982871;28;20122;-65
2024/01/27 11:11:20;;;;;;;15.75;4.18;;;;;;;;;;4983079;28;20038;-65
2024/01/27 11:13:48;;;;;;;18.58;4.15;;;;;;;;;;4983710;28;20077;-65
2024/01/27 11:16:18;;;;;;;16.30;4.15;;;;;;;;;;4984068;28;21239;-64
2024/01/27 11:18:44;;;;;;;15.98;4.32;;;;;;;;;;4984573;28;20474;-64
2024/01/27 11:21:17;;;;;;;19.30;4.82;;;;;;;;;;4984232;28;20116;-64
2024/01/27 11:23:44;;;;;;;19.02;5.32;;;;;;;;;;4983568;28;20030;-64
2024/01/27 11:26:14;;;;;;;16.23;4.32;;;;;;;;;;4983511;28;20046;-64
2024/01/27 11:28:41;;;;;;;21.45;4.03;;;;;;;;;;4984284;28;20034;-64
2024/01/27 11:31:07;;;;;;;17.60;4.60;;;;;;;;;;4984274;28;20026;-64
2024/01/27 11:33:34;;;;;;;18.23;4.70;;;;;;;;;;4984157;28;20045;-64
2024/01/27 11:36:00;;;;;;;16.02;3.45;;;;;;;;;;4983978;28;20049;-64
2024/01/27 11:38:26;;;;;;;18.13;4.53;;;;;;;;;;4984159;28;20034;-64
2024/01/27 11:40:52;;;;;;;22.35;5.25;;;;;;;;;;4983689;28;20038;-64
2024/01/27 11:43:18;;;;;;;13.77;3.67;;;;;;;;;;4983907;28;20049;-65
2024/01/27 11:45:55;;;;;;;19.85;4.18;;;;;;;;;;4983803;28;20052;-65
2024/01/27 11:48:21;;;;;;;30.48;3.80;;;;;;;;;;4983689;28;20041;-64
2024/01/27 11:50:47;;;;;;;16.58;4.05;;;;;;;;;;4983930;28;20167;-65
2024/01/27 11:53:13;;;;;;;23.88;4.18;;;;;;;;;;4983792;28;21200;-65
2024/01/27 11:55:39;;;;;;;20.30;4.15;;;;;;;;;;4983677;28;20451;-65
2024/01/27 11:58:05;;;;;;;24.70;4.53;;;;;;;;;;4983885;28;20042;-65
2024/01/27 12:00:31;;;;;;;16.67;3.45;;;;;;;;;;4983567;28;20022;-65
2024/01/27 12:02:57;;;;;;;16.48;3.67;;;;;;;;;;4982852;28;20429;-65
2024/01/27 12:05:24;;;;;;;16.13;3.78;;;;;;;;;;4983484;28;20085;-65
2024/01/27 12:07:51;;;;;;;23.38;3.72;;;;;;;;;;4983429;28;20029;-65
2024/01/27 12:10:17;;;;;;;15.25;3.00;;;;;;;;;;4983387;28;20030;-65
2024/01/27 12:12:43;;;;;;;12.07;2.60;;;;;;;;;;4982802;28;20034;-65
2024/01/27 12:15:09;;;;;;;20.05;4.30;;;;;;;;;;4983474;28;20062;-65
2024/01/27 12:17:35;;;;;;;16.02;3.17;;;;;;;;;;4983166;28;20480;-65
2024/01/27 12:20:01;;;;;;;18.02;4.00;;;;;;;;;;4983872;28;20496;-65
2024/01/27 12:22:28;;;;;;;16.88;3.75;;;;;;;;;;4982814;28;22123;-65
2024/01/27 12:25:11;;;;;;;16.30;3.38;;;;;;;;;;4983462;28;20033;-65
2024/01/27 12:27:38;;;;;;;19.88;3.60;;;;;;;;;;4983197;28;20042;-65
2024/01/27 12:30:04;;;;;;;16.63;3.67;;;;;;;;;;4983002;28;20480;-65
2024/01/27 12:32:31;;;;;;;14.48;3.10;;;;;;;;;;4982513;28;20034;-65
2024/01/27 12:35:00;;;;;;;18.60;4.28;;;;;;;;;;4983295;28;20037;-65
2024/01/27 12:37:26;;;;;;;17.33;3.50;;;;;;;;;;4982377;28;20029;-65
2024/01/27 12:39:52;;;;;;;16.27;3.88;;;;;;;;;;4983058;28;20042;-65
2024/01/27 12:42:19;;;;;;;14.30;3.25;;;;;;;;;;4983285;28;20034;-65
2024/01/27 12:44:45;;;;;;;18.40;3.78;;;;;;;;;;4971852;28;20034;-65
2024/01/27 12:47:11;;;;;;;17.40;2.95;;;;;;;;;;4976353;28;20983;-65
2024/01/27 12:49:38;;;;;;;20.73;3.60;;;;;;;;;;4974003;28;20048;-65
2024/01/27 12:52:05;;;;;;;20.15;3.13;;;;;;;;;;4975225;28;20046;-65
2024/01/27 12:54:31;;;;;;;14.35;3.05;;;;;;;;;;4975813;28;20030;-65
2024/01/27 12:56:58;;;;;;;16.70;3.00;;;;;;;;;;4975348;28;20034;-65
2024/01/27 12:59:24;;;;;;;18.85;2.72;;;;;;;;;;4974819;28;20050;-65
2024/01/27 13:01:50;;;;;;;15.98;3.78;;;;;;;;;;4975368;28;20035;-65
2024/01/27 13:04:16;;;;;;;19.05;2.75;;;;;;;;;;4955543;28;20050;-65
2024/01/27 13:06:42;;;;;;;20.77;3.80;;;;;;;;;;4974435;28;20046;-65
2024/01/27 13:09:12;;;;;;;16.80;3.97;;;;;;;;;;4975561;28;20080;-65
2024/01/27 13:11:38;;;;;;;16.58;3.45;;;;;;;;;;4975219;28;20526;-65
2024/01/27 13:14:05;;;;;;;21.38;3.55;;;;;;;;;;4973204;28;20678;-65
2024/01/27 13:16:31;;;;;;;17.42;4.35;;;;;;;;;;4975401;28;20037;-65
2024/01/27 13:18:57;;;;;;;18.30;3.25;;;;;;;;;;4975205;28;20501;-65
2024/01/27 13:21:23;;;;;;;22.50;3.50;;;;;;;;;;4974933;28;20496;-65
2024/01/27 13:23:52;;;;;;;14.75;3.25;;;;;;;;;;4974559;28;20065;-65
2024/01/27 13:26:18;;;;;;;13.10;3.65;;;;;;;;;;4950792;28;20065;-65
2024/01/27 13:28:44;;;;;;;18.65;3.83;;;;;;;;;;4959634;28;20042;-65
2024/01/27 13:31:10;;;;;;;17.98;3.20;;;;;;;;;;4965229;28;21889;-65
2024/01/27 13:33:36;;;;;;;19.48;4.20;;;;;;;;;;4960984;28;20948;-65
2024/01/27 13:36:02;;;;;;;21.27;3.33;;;;;;;;;;4949086;28;20026;-66
2024/01/27 13:38:29;;;;;;;14.23;2.70;;;;;;;;;;4964943;28;20378;-66
2024/01/27 13:40:55;;;;;;;16.08;3.50;;;;;;;;;;4964474;28;21938;-66
2024/01/27 13:43:21;;;;;;;20.48;3.50;;;;;;;;;;4964967;28;20042;-66
2024/01/27 13:45:47;;;;;;;22.13;4.63;;;;;;;;;;4965085;28;20399;-66
2024/01/27 13:48:13;;;;;;;20.95;3.05;;;;;;;;;;4964694;28;20043;-66
2024/01/27 13:50:40;;;;;;;15.65;3.50;;;;;;;;;;4964567;28;20038;-66
2024/01/27 13:53:06;;;;;;;16.33;3.53;;;;;;;;;;4964119;28;20038;-66
2024/01/27 13:55:32;;;;;;;21.42;3.42;;;;;;;;;;4965889;28;20040;-65
2024/01/27 13:57:58;;;;;;;12.98;3.00;;;;;;;;;;4965645;28;20042;-66
2024/01/27 14:00:24;;;;;;;15.68;3.00;;;;;;;;;;4964877;28;20662;-66
2024/01/27 14:02:50;;;;;;;17.23;3.50;;;;;;;;;;4965716;28;20944;-66
2024/01/27 14:05:17;;;;;;;10.80;2.78;;;;;;;;;;4965286;28;20402;-66
2024/01/27 14:07:43;;;;;;;12.90;3.17;;;;;;;;;;4965849;28;20461;-66
2024/01/27 14:10:09;;;;;;;12.20;2.75;;;;;;;;;;4964177;28;21741;-65
2024/01/27 14:12:35;;;;;;;18.85;3.75;;;;;;;;;;4963917;28;21131;-66
2024/01/27 14:15:08;;;;;;;18.80;3.97;;;;;;;;;;4964874;28;20558;-66
2024/01/27 14:17:36;;;;;;;15.13;3.22;;;;;;;;;;4963864;28;20093;-65
2024/01/27 14:20:03;;;;;;;17.38;3.50;;;;;;;;;;4964686;28;20030;-66
2024/01/27 14:22:29;;;;;;;19.15;3.50;;;;;;;;;;4964600;28;21869;-66
2024/01/27 14:24:55;;;;;;;16.63;3.50;;;;;;;;;;4967393;28;20039;-66
2024/01/27 14:27:25;;;;;;;12.75;3.45;;;;;;;;;;4967887;28;20178;-66